WXM80 ListenWXM80 Stop

You find our weather info also at:

UK Metoffice

WeatherCloud

Weather Underground

Northeastern Weather Network

AWEKAS

Citizen Weather Observer Program (CWOP)

HAMweather, WeatherForYou, PWS Weather


Weather Underground History page Text

Daily Summary for September 29, 2017 Units:  Both    English   Metric
« Previous Day
Next Day »
Daily Weekly Monthly Yearly Custom
  High: Low: Average:
Temperature: 72.5 °F /  22.5 °C 54.3 °F /  12.4 °C 61.8 °F /  16.6 °C
Dew Point: 52.6 °F /  11.4 °C 45.6 °F /  7.6 °C 48.8 °F /  9.3 °C
Humidity: 86 % 45 % 64 %
Wind Speed: 10.3 mph /  16.6 km/h - 2.5 mph /  4 km/h
Wind Gust: 17.3 mph /  27.8 km/h - -
Wind:- - South
Pressure: 29.94 in /  1013.8 hPa 29.84 in /  1010.4 hPa -
Precipitation: 0.00 in /  0 mm    
Historical Graphs
 
 
Tabular Data for September 29, 2017
Time Temperature Dew Point Pressure Wind Wind Speed Wind Gust Humidity Rainfall Rate (Hourly)
00:03 62.2 °F /  16.8 °C 49.0 °F /  9.4 °C 29.84 in /  1010.4 hPa North 2.7 mph /  4.3 km/h 10.4 mph /  16.7 km/h 62 % 0.00 in /  0 mm
00:09 62.1 °F /  16.7 °C 48.9 °F /  9.4 °C 29.84 in /  1010.4 hPa NE 7.6 mph /  12.2 km/h 12.7 mph /  20.4 km/h 62 % 0.00 in /  0 mm
00:14 61.9 °F /  16.6 °C 48.7 °F /  9.3 °C 29.84 in /  1010.4 hPa North 7.5 mph /  12.1 km/h 11.5 mph /  18.5 km/h 62 % 0.00 in /  0 mm
00:19 61.8 °F /  16.6 °C 48.6 °F /  9.2 °C 29.84 in /  1010.4 hPa NW 6.8 mph /  10.9 km/h 11.5 mph /  18.5 km/h 62 % 0.00 in /  0 mm
00:24 61.7 °F /  16.5 °C 48.5 °F /  9.2 °C 29.84 in /  1010.4 hPa NNE 6.6 mph /  10.6 km/h 13.8 mph /  22.2 km/h 62 % 0.00 in /  0 mm
00:29 61.6 °F /  16.4 °C 48.4 °F /  9.1 °C 29.84 in /  1010.4 hPa NNE 6.7 mph /  10.8 km/h 12.7 mph /  20.4 km/h 62 % 0.00 in /  0 mm
00:34 61.5 °F /  16.4 °C 48.8 °F /  9.3 °C 29.84 in /  1010.4 hPa NNW 6.1 mph /  9.8 km/h 12.7 mph /  20.4 km/h 63 % 0.00 in /  0 mm
00:39 61.4 °F /  16.3 °C 48.7 °F /  9.3 °C 29.85 in /  1010.7 hPa NNE 5.5 mph /  8.9 km/h 11.5 mph /  18.5 km/h 63 % 0.00 in /  0 mm
00:44 61.3 °F /  16.3 °C 48.2 °F /  9 °C 29.84 in /  1010.4 hPa NNW 7.2 mph /  11.6 km/h 13.8 mph /  22.2 km/h 62 % 0.00 in /  0 mm
00:49 61.2 °F /  16.2 °C 48.5 °F /  9.2 °C 29.85 in /  1010.7 hPa NNE 4.4 mph /  7.1 km/h 9.2 mph /  14.8 km/h 63 % 0.00 in /  0 mm
00:54 61.1 °F /  16.2 °C 48.0 °F /  8.9 °C 29.85 in /  1010.7 hPa NNE 10.3 mph /  16.6 km/h 17.3 mph /  27.8 km/h 62 % 0.00 in /  0 mm
00:59 60.9 °F /  16.1 °C 48.6 °F /  9.2 °C 29.85 in /  1010.7 hPa North 6.3 mph /  10.1 km/h 12.7 mph /  20.4 km/h 64 % 0.00 in /  0 mm
01:04 60.9 °F /  16.1 °C 48.2 °F /  9 °C 29.85 in /  1010.7 hPa NNE 6.2 mph /  10 km/h 10.4 mph /  16.7 km/h 63 % 0.00 in /  0 mm
01:09 60.8 °F /  16 °C 49.0 °F /  9.4 °C 29.85 in /  1010.7 hPa NE 4.5 mph /  7.2 km/h 10.0 mph /  16.1 km/h 65 % 0.00 in /  0 mm
01:14 60.7 °F /  15.9 °C 48.4 °F /  9.1 °C 29.85 in /  1010.7 hPa North 7.5 mph /  12.1 km/h 11.5 mph /  18.5 km/h 64 % 0.00 in /  0 mm
01:19 60.6 °F /  15.9 °C 47.9 °F /  8.8 °C 29.85 in /  1010.7 hPa NNE 4.7 mph /  7.6 km/h 8.1 mph /  13 km/h 63 % 0.00 in /  0 mm
01:24 60.5 °F /  15.8 °C 48.7 °F /  9.3 °C 29.86 in /  1011.1 hPa NNE 6.0 mph /  9.7 km/h 10.4 mph /  16.7 km/h 65 % 0.00 in /  0 mm
01:29 60.4 °F /  15.8 °C 48.2 °F /  9 °C 29.85 in /  1010.7 hPa NNE 6.9 mph /  11.1 km/h 13.8 mph /  22.2 km/h 64 % 0.00 in /  0 mm
01:34 60.3 °F /  15.7 °C 48.1 °F /  8.9 °C 29.85 in /  1010.7 hPa NNE 5.9 mph /  9.5 km/h 11.5 mph /  18.5 km/h 64 % 0.00 in /  0 mm
01:39 60.3 °F /  15.7 °C 48.1 °F /  8.9 °C 29.86 in /  1011.1 hPa North 8.2 mph /  13.2 km/h 10.4 mph /  16.7 km/h 64 % 0.00 in /  0 mm
01:44 60.2 °F /  15.7 °C 48.4 °F /  9.1 °C 29.85 in /  1010.7 hPa North 7.6 mph /  12.2 km/h 10.4 mph /  16.7 km/h 65 % 0.00 in /  0 mm
01:49 60.1 °F /  15.6 °C 48.7 °F /  9.3 °C 29.86 in /  1011.1 hPa NNW 5.2 mph /  8.4 km/h 9.2 mph /  14.8 km/h 66 % 0.00 in /  0 mm
01:54 60.0 °F /  15.6 °C 48.2 °F /  9 °C 29.86 in /  1011.1 hPa NE 3.2 mph /  5.1 km/h 9.2 mph /  14.8 km/h 65 % 0.00 in /  0 mm
01:59 60.0 °F /  15.6 °C 47.8 °F /  8.8 °C 29.86 in /  1011.1 hPa NNE 7.3 mph /  11.7 km/h 9.2 mph /  14.8 km/h 64 % 0.00 in /  0 mm
02:04 59.9 °F /  15.5 °C 47.3 °F /  8.5 °C 29.86 in /  1011.1 hPa NNE 4.3 mph /  6.9 km/h 10.4 mph /  16.7 km/h 63 % 0.00 in /  0 mm
02:09 59.8 °F /  15.4 °C 47.6 °F /  8.7 °C 29.86 in /  1011.1 hPa North 6.7 mph /  10.8 km/h 11.5 mph /  18.5 km/h 64 % 0.00 in /  0 mm
02:14 59.7 °F /  15.4 °C 47.5 °F /  8.6 °C 29.86 in /  1011.1 hPa NE 6.6 mph /  10.6 km/h 10.4 mph /  16.7 km/h 64 % 0.00 in /  0 mm
02:19 59.7 °F /  15.4 °C 47.9 °F /  8.8 °C 29.86 in /  1011.1 hPa NNE 3.7 mph /  6 km/h 10.4 mph /  16.7 km/h 65 % 0.00 in /  0 mm
02:24 59.6 °F /  15.3 °C 48.2 °F /  9 °C 29.86 in /  1011.1 hPa NNE 6.0 mph /  9.7 km/h 6.9 mph /  11.1 km/h 66 % 0.00 in /  0 mm
02:29 59.6 °F /  15.3 °C 47.8 °F /  8.8 °C 29.86 in /  1011.1 hPa NE 5.9 mph /  9.5 km/h 10.0 mph /  16.1 km/h 65 % 0.00 in /  0 mm
02:34 59.5 °F /  15.3 °C 47.7 °F /  8.7 °C 29.86 in /  1011.1 hPa NNE 3.1 mph /  5 km/h 4.0 mph /  6.4 km/h 65 % 0.00 in /  0 mm
02:40 59.4 °F /  15.2 °C 47.6 °F /  8.7 °C 29.86 in /  1011.1 hPa NNE 6.4 mph /  10.3 km/h 8.1 mph /  13 km/h 65 % 0.00 in /  0 mm
02:44 59.3 °F /  15.2 °C 47.1 °F /  8.4 °C 29.86 in /  1011.1 hPa NNW 4.0 mph /  6.4 km/h 8.0 mph /  12.9 km/h 64 % 0.00 in /  0 mm
02:49 59.3 °F /  15.2 °C 47.5 °F /  8.6 °C 29.86 in /  1011.1 hPa NNE 3.8 mph /  6.1 km/h 6.9 mph /  11.1 km/h 65 % 0.00 in /  0 mm
02:54 59.2 °F /  15.1 °C 47.4 °F /  8.6 °C 29.86 in /  1011.1 hPa NNE 6.1 mph /  9.8 km/h 11.5 mph /  18.5 km/h 65 % 0.00 in /  0 mm
02:59 59.1 °F /  15.1 °C 47.3 °F /  8.5 °C 29.86 in /  1011.1 hPa NE 6.5 mph /  10.5 km/h 11.5 mph /  18.5 km/h 65 % 0.00 in /  0 mm
03:04 59.1 °F /  15.1 °C 48.1 °F /  8.9 °C 29.86 in /  1011.1 hPa North 4.9 mph /  7.9 km/h 6.9 mph /  11.1 km/h 67 % 0.00 in /  0 mm
03:09 59.0 °F /  15 °C 47.7 °F /  8.7 °C 29.86 in /  1011.1 hPa NNE 3.7 mph /  6 km/h 8.1 mph /  13 km/h 66 % 0.00 in /  0 mm
03:15 58.9 °F /  14.9 °C 47.2 °F /  8.4 °C 29.86 in /  1011.1 hPa North 4.5 mph /  7.2 km/h 9.2 mph /  14.8 km/h 65 % 0.00 in /  0 mm
03:19 58.9 °F /  14.9 °C 47.2 °F /  8.4 °C 29.86 in /  1011.1 hPa NE 5.7 mph /  9.2 km/h 8.1 mph /  13 km/h 65 % 0.00 in /  0 mm
03:24 58.8 °F /  14.9 °C 47.5 °F /  8.6 °C 29.86 in /  1011.1 hPa North 8.7 mph /  14 km/h 10.4 mph /  16.7 km/h 66 % 0.00 in /  0 mm
03:30 58.7 °F /  14.8 °C 47.0 °F /  8.3 °C 29.86 in /  1011.1 hPa North 5.6 mph /  9 km/h 11.5 mph /  18.5 km/h 65 % 0.00 in /  0 mm
03:35 58.7 °F /  14.8 °C 47.4 °F /  8.6 °C 29.87 in /  1011.4 hPa NNE 5.5 mph /  8.9 km/h 6.9 mph /  11.1 km/h 66 % 0.00 in /  0 mm
03:40 58.7 °F /  14.8 °C 47.4 °F /  8.6 °C 29.86 in /  1011.1 hPa NNE 5.0 mph /  8 km/h 7.0 mph /  11.3 km/h 66 % 0.00 in /  0 mm
03:45 58.6 °F /  14.8 °C 47.3 °F /  8.5 °C 29.87 in /  1011.4 hPa North 3.8 mph /  6.1 km/h 5.8 mph /  9.3 km/h 66 % 0.00 in /  0 mm
03:50 58.5 °F /  14.7 °C 47.2 °F /  8.4 °C 29.87 in /  1011.4 hPa NNE 4.6 mph /  7.4 km/h 8.1 mph /  13 km/h 66 % 0.00 in /  0 mm
03:55 58.5 °F /  14.7 °C 47.6 °F /  8.7 °C 29.87 in /  1011.4 hPa North 2.6 mph /  4.2 km/h 4.6 mph /  7.4 km/h 67 % 0.00 in /  0 mm
04:00 58.4 °F /  14.7 °C 47.5 °F /  8.6 °C 29.87 in /  1011.4 hPa NNW 2.4 mph /  3.9 km/h 6.9 mph /  11.1 km/h 67 % 0.00 in /  0 mm
04:05 58.3 °F /  14.6 °C 47.0 °F /  8.3 °C 29.87 in /  1011.4 hPa North 3.2 mph /  5.1 km/h 4.6 mph /  7.4 km/h 66 % 0.00 in /  0 mm
04:10 58.2 °F /  14.6 °C 47.3 °F /  8.5 °C 29.88 in /  1011.7 hPa North 2.9 mph /  4.7 km/h 6.9 mph /  11.1 km/h 67 % 0.00 in /  0 mm
04:15 58.2 °F /  14.6 °C 46.9 °F /  8.3 °C 29.88 in /  1011.7 hPa North 2.8 mph /  4.5 km/h 6.9 mph /  11.1 km/h 66 % 0.00 in /  0 mm
04:20 58.1 °F /  14.5 °C 47.2 °F /  8.4 °C 29.88 in /  1011.7 hPa NNE 5.8 mph /  9.3 km/h 9.2 mph /  14.8 km/h 67 % 0.00 in /  0 mm
04:25 58.1 °F /  14.5 °C 47.2 °F /  8.4 °C 29.88 in /  1011.7 hPa NE 5.7 mph /  9.2 km/h 9.2 mph /  14.8 km/h 67 % 0.00 in /  0 mm
04:30 58.0 °F /  14.4 °C 47.1 °F /  8.4 °C 29.88 in /  1011.7 hPa North 4.1 mph /  6.6 km/h 8.1 mph /  13 km/h 67 % 0.00 in /  0 mm
04:36 57.9 °F /  14.4 °C 47.4 °F /  8.6 °C 29.88 in /  1011.7 hPa North 2.2 mph /  3.5 km/h 5.8 mph /  9.3 km/h 68 % 0.00 in /  0 mm
04:41 57.8 °F /  14.3 °C 46.9 °F /  8.3 °C 29.88 in /  1011.7 hPa North 3.8 mph /  6.1 km/h 6.0 mph /  9.7 km/h 67 % 0.00 in /  0 mm
04:46 57.7 °F /  14.3 °C 46.8 °F /  8.2 °C 29.88 in /  1011.7 hPa North 2.0 mph /  3.2 km/h 8.0 mph /  12.9 km/h 67 % 0.00 in /  0 mm
04:51 57.6 °F /  14.2 °C 46.7 °F /  8.2 °C 29.88 in /  1011.7 hPa NNE 1.0 mph /  1.6 km/h 10.0 mph /  16.1 km/h 67 % 0.00 in /  0 mm
04:56 57.5 °F /  14.2 °C 47.0 °F /  8.3 °C 29.88 in /  1011.7 hPa NNE 6.0 mph /  9.7 km/h 12.0 mph /  19.3 km/h 68 % 0.00 in /  0 mm
05:01 57.4 °F /  14.1 °C 46.5 °F /  8.1 °C 29.88 in /  1011.7 hPa NNW 2.9 mph /  4.7 km/h 5.0 mph /  8 km/h 67 % 0.00 in /  0 mm
05:06 57.4 °F /  14.1 °C 46.5 °F /  8.1 °C 29.88 in /  1011.7 hPa North 4.3 mph /  6.9 km/h 6.9 mph /  11.1 km/h 67 % 0.00 in /  0 mm
05:11 57.3 °F /  14.1 °C 46.8 °F /  8.2 °C 29.88 in /  1011.7 hPa NNE 3.0 mph /  4.8 km/h 5.0 mph /  8 km/h 68 % 0.00 in /  0 mm
05:16 57.2 °F /  14 °C 46.7 °F /  8.2 °C 29.88 in /  1011.7 hPa North 3.6 mph /  5.8 km/h 7.0 mph /  11.3 km/h 68 % 0.00 in /  0 mm
05:21 57.1 °F /  13.9 °C 46.6 °F /  8.1 °C 29.88 in /  1011.7 hPa North 3.2 mph /  5.1 km/h 5.0 mph /  8 km/h 68 % 0.00 in /  0 mm
05:26 57.0 °F /  13.9 °C 46.5 °F /  8.1 °C 29.88 in /  1011.7 hPa NNE 4.8 mph /  7.7 km/h 10.4 mph /  16.7 km/h 68 % 0.00 in /  0 mm
05:31 56.9 °F /  13.8 °C 46.4 °F /  8 °C 29.88 in /  1011.7 hPa NNE 3.8 mph /  6.1 km/h 5.8 mph /  9.3 km/h 68 % 0.00 in /  0 mm
05:36 56.9 °F /  13.8 °C 46.8 °F /  8.2 °C 29.88 in /  1011.7 hPa NNE 4.1 mph /  6.6 km/h 6.9 mph /  11.1 km/h 69 % 0.00 in /  0 mm
05:41 56.8 °F /  13.8 °C 46.7 °F /  8.2 °C 29.89 in /  1012.1 hPa NNE 4.3 mph /  6.9 km/h 6.0 mph /  9.7 km/h 69 % 0.00 in /  0 mm
05:46 56.8 °F /  13.8 °C 46.7 °F /  8.2 °C 29.89 in /  1012.1 hPa North 5.5 mph /  8.9 km/h 9.0 mph /  14.5 km/h 69 % 0.00 in /  0 mm
05:51 56.7 °F /  13.7 °C 46.3 °F /  7.9 °C 29.89 in /  1012.1 hPa NE 3.0 mph /  4.8 km/h 8.1 mph /  13 km/h 68 % 0.00 in /  0 mm
05:56 56.6 °F /  13.7 °C 46.2 °F /  7.9 °C 29.89 in /  1012.1 hPa North 5.8 mph /  9.3 km/h 10.4 mph /  16.7 km/h 68 % 0.00 in /  0 mm
06:01 56.6 °F /  13.7 °C 45.8 °F /  7.7 °C 29.89 in /  1012.1 hPa NNW 5.4 mph /  8.7 km/h 11.5 mph /  18.5 km/h 67 % 0.00 in /  0 mm
06:06 56.7 °F /  13.7 °C 46.3 °F /  7.9 °C 29.89 in /  1012.1 hPa NNE 3.9 mph /  6.3 km/h 9.2 mph /  14.8 km/h 68 % 0.00 in /  0 mm
06:11 56.6 °F /  13.7 °C 46.5 °F /  8.1 °C 29.90 in /  1012.4 hPa NNW 4.3 mph /  6.9 km/h 7.0 mph /  11.3 km/h 69 % 0.00 in /  0 mm
06:16 56.6 °F /  13.7 °C 46.5 °F /  8.1 °C 29.90 in /  1012.4 hPa NNE 4.2 mph /  6.8 km/h 6.9 mph /  11.1 km/h 69 % 0.00 in /  0 mm
06:21 56.6 °F /  13.7 °C 46.2 °F /  7.9 °C 29.90 in /  1012.4 hPa North 3.6 mph /  5.8 km/h 6.9 mph /  11.1 km/h 68 % 0.00 in /  0 mm
06:26 56.6 °F /  13.7 °C 45.8 °F /  7.7 °C 29.90 in /  1012.4 hPa North 2.2 mph /  3.5 km/h 5.8 mph /  9.3 km/h 67 % 0.00 in /  0 mm
06:31 56.6 °F /  13.7 °C 45.8 °F /  7.7 °C 29.90 in /  1012.4 hPa NNE 3.0 mph /  4.8 km/h 6.9 mph /  11.1 km/h 67 % 0.00 in /  0 mm
06:36 56.6 °F /  13.7 °C 46.2 °F /  7.9 °C 29.90 in /  1012.4 hPa NNE 2.1 mph /  3.4 km/h 4.6 mph /  7.4 km/h 68 % 0.00 in /  0 mm
06:41 56.5 °F /  13.6 °C 45.7 °F /  7.6 °C 29.90 in /  1012.4 hPa ENE 3.7 mph /  6 km/h 6.9 mph /  11.1 km/h 67 % 0.00 in /  0 mm
06:46 56.4 °F /  13.6 °C 45.6 °F /  7.6 °C 29.90 in /  1012.4 hPa North 5.6 mph /  9 km/h 6.9 mph /  11.1 km/h 67 % 0.00 in /  0 mm
06:51 56.5 °F /  13.6 °C 45.7 °F /  7.6 °C 29.90 in /  1012.4 hPa North 4.5 mph /  7.2 km/h 7.0 mph /  11.3 km/h 67 % 0.00 in /  0 mm
06:56 56.5 °F /  13.6 °C 45.7 °F /  7.6 °C 29.90 in /  1012.4 hPa NNE 3.3 mph /  5.3 km/h 8.1 mph /  13 km/h 67 % 0.00 in /  0 mm
07:01 56.5 °F /  13.6 °C 46.1 °F /  7.8 °C 29.90 in /  1012.4 hPa North 4.3 mph /  6.9 km/h 6.0 mph /  9.7 km/h 68 % 0.00 in /  0 mm
07:06 56.6 °F /  13.7 °C 45.8 °F /  7.7 °C 29.90 in /  1012.4 hPa NNE 3.9 mph /  6.3 km/h 5.8 mph /  9.3 km/h 67 % 0.00 in /  0 mm
07:11 56.7 °F /  13.7 °C 45.9 °F /  7.7 °C 29.91 in /  1012.8 hPa NNE 2.8 mph /  4.5 km/h 9.2 mph /  14.8 km/h 67 % 0.00 in /  0 mm
07:17 56.8 °F /  13.8 °C 46.3 °F /  7.9 °C 29.91 in /  1012.8 hPa NNE 3.8 mph /  6.1 km/h 6.9 mph /  11.1 km/h 68 % 0.00 in /  0 mm
07:22 56.9 °F /  13.8 °C 46.4 °F /  8 °C 29.92 in /  1013.1 hPa NNE 3.0 mph /  4.8 km/h 4.6 mph /  7.4 km/h 68 % 0.00 in /  0 mm
07:27 56.9 °F /  13.8 °C 46.4 °F /  8 °C 29.91 in /  1012.8 hPa NNE 3.7 mph /  6 km/h 5.8 mph /  9.3 km/h 68 % 0.00 in /  0 mm
07:32 57.0 °F /  13.9 °C 46.5 °F /  8.1 °C 29.92 in /  1013.1 hPa North 2.4 mph /  3.9 km/h 6.9 mph /  11.1 km/h 68 % 0.00 in /  0 mm
07:37 57.0 °F /  13.9 °C 46.5 °F /  8.1 °C 29.92 in /  1013.1 hPa North 2.8 mph /  4.5 km/h 5.8 mph /  9.3 km/h 68 % 0.00 in /  0 mm
07:42 57.1 °F /  13.9 °C 46.6 °F /  8.1 °C 29.92 in /  1013.1 hPa North 4.7 mph /  7.6 km/h 9.0 mph /  14.5 km/h 68 % 0.00 in /  0 mm
07:47 57.2 °F /  14 °C 46.7 °F /  8.2 °C 29.92 in /  1013.1 hPa NNE 3.1 mph /  5 km/h 5.8 mph /  9.3 km/h 68 % 0.00 in /  0 mm
07:52 57.2 °F /  14 °C 46.7 °F /  8.2 °C 29.92 in /  1013.1 hPa North 0.3 mph /  0.5 km/h 2.3 mph /  3.7 km/h 68 % 0.00 in /  0 mm
07:57 57.3 °F /  14.1 °C 46.4 °F /  8 °C 29.92 in /  1013.1 hPa NNE 3.9 mph /  6.3 km/h 6.9 mph /  11.1 km/h 67 % 0.00 in /  0 mm
08:02 57.3 °F /  14.1 °C 46.0 °F /  7.8 °C 29.92 in /  1013.1 hPa North 3.9 mph /  6.3 km/h 9.2 mph /  14.8 km/h 66 % 0.00 in /  0 mm
08:07 57.4 °F /  14.1 °C 46.9 °F /  8.3 °C 29.92 in /  1013.1 hPa North 4.1 mph /  6.6 km/h 8.1 mph /  13 km/h 68 % 0.00 in /  0 mm
08:12 57.5 °F /  14.2 °C 47.0 °F /  8.3 °C 29.92 in /  1013.1 hPa NNE 3.2 mph /  5.1 km/h 4.6 mph /  7.4 km/h 68 % 0.00 in /  0 mm
08:17 57.7 °F /  14.3 °C 46.8 °F /  8.2 °C 29.92 in /  1013.1 hPa NNE 3.0 mph /  4.8 km/h 4.0 mph /  6.4 km/h 67 % 0.00 in /  0 mm
08:22 57.8 °F /  14.3 °C 46.9 °F /  8.3 °C 29.93 in /  1013.4 hPa ENE 2.8 mph /  4.5 km/h 7.0 mph /  11.3 km/h 67 % 0.00 in /  0 mm
08:27 57.9 °F /  14.4 °C 46.6 °F /  8.1 °C 29.92 in /  1013.1 hPa NE 2.1 mph /  3.4 km/h 3.5 mph /  5.6 km/h 66 % 0.00 in /  0 mm
08:32 58.1 °F /  14.5 °C 47.6 °F /  8.7 °C 29.93 in /  1013.4 hPa NNE 2.2 mph /  3.5 km/h 4.6 mph /  7.4 km/h 68 % 0.00 in /  0 mm
08:37 58.2 °F /  14.6 °C 47.7 °F /  8.7 °C 29.93 in /  1013.4 hPa NNW 1.4 mph /  2.3 km/h 3.5 mph /  5.6 km/h 68 % 0.00 in /  0 mm
08:42 58.3 °F /  14.6 °C 47.0 °F /  8.3 °C 29.93 in /  1013.4 hPa North 2.4 mph /  3.9 km/h 5.0 mph /  8 km/h 66 % 0.00 in /  0 mm
08:47 58.4 °F /  14.7 °C 46.7 °F /  8.2 °C 29.93 in /  1013.4 hPa NNE 2.2 mph /  3.5 km/h 5.0 mph /  8 km/h 65 % 0.00 in /  0 mm
08:52 58.4 °F /  14.7 °C 47.1 °F /  8.4 °C 29.93 in /  1013.4 hPa North 0.2 mph /  0.3 km/h 1.2 mph /  1.9 km/h 66 % 0.00 in /  0 mm
08:57 58.5 °F /  14.7 °C 46.8 °F /  8.2 °C 29.94 in /  1013.8 hPa NNE 3.8 mph /  6.1 km/h 5.0 mph /  8 km/h 65 % 0.00 in /  0 mm
09:02 58.5 °F /  14.7 °C 47.2 °F /  8.4 °C 29.94 in /  1013.8 hPa NNW 0.8 mph /  1.3 km/h 3.5 mph /  5.6 km/h 66 % 0.00 in /  0 mm
09:07 58.5 °F /  14.7 °C 46.8 °F /  8.2 °C 29.94 in /  1013.8 hPa NNE 4.6 mph /  7.4 km/h 7.0 mph /  11.3 km/h 65 % 0.00 in /  0 mm
09:13 58.6 °F /  14.8 °C 46.9 °F /  8.3 °C 29.94 in /  1013.8 hPa NNW 2.1 mph /  3.4 km/h 5.8 mph /  9.3 km/h 65 % 0.00 in /  0 mm
09:18 58.6 °F /  14.8 °C 46.5 °F /  8.1 °C 29.94 in /  1013.8 hPa NNE 3.2 mph /  5.1 km/h 4.6 mph /  7.4 km/h 64 % 0.00 in /  0 mm
09:23 58.7 °F /  14.8 °C 46.5 °F /  8.1 °C 29.94 in /  1013.8 hPa NE 3.6 mph /  5.8 km/h 4.6 mph /  7.4 km/h 64 % 0.00 in /  0 mm
09:28 58.7 °F /  14.8 °C 46.1 °F /  7.8 °C 29.94 in /  1013.8 hPa NNE 3.1 mph /  5 km/h 9.2 mph /  14.8 km/h 63 % 0.00 in /  0 mm
09:33 58.8 °F /  14.9 °C 46.2 °F /  7.9 °C 29.94 in /  1013.8 hPa North 4.0 mph /  6.4 km/h 5.8 mph /  9.3 km/h 63 % 0.00 in /  0 mm
09:38 58.9 °F /  14.9 °C 46.3 °F /  7.9 °C 29.94 in /  1013.8 hPa NW 1.7 mph /  2.7 km/h 4.0 mph /  6.4 km/h 63 % 0.00 in /  0 mm
09:43 58.9 °F /  14.9 °C 46.3 °F /  7.9 °C 29.94 in /  1013.8 hPa NE 2.0 mph /  3.2 km/h 3.5 mph /  5.6 km/h 63 % 0.00 in /  0 mm
09:48 59.0 °F /  15 °C 46.4 °F /  8 °C 29.94 in /  1013.8 hPa NNW 4.2 mph /  6.8 km/h 6.9 mph /  11.1 km/h 63 % 0.00 in /  0 mm
09:53 59.1 °F /  15.1 °C 46.1 °F /  7.8 °C 29.94 in /  1013.8 hPa Calm   1.2 mph /  1.9 km/h 62 % 0.00 in /  0 mm
09:55 59.1 °F /  15.1 °C 46.9 °F /  8.3 °C 29.94 in /  1013.8 hPa North 4.1 mph /  6.6 km/h 4.6 mph /  7.4 km/h 64 % 0.00 in /  0 mm
10:00 59.2 °F /  15.1 °C 46.2 °F /  7.9 °C 29.94 in /  1013.8 hPa North 1.5 mph /  2.4 km/h 4.6 mph /  7.4 km/h 62 % 0.00 in /  0 mm
10:05 59.3 °F /  15.2 °C 45.8 °F /  7.7 °C 29.94 in /  1013.8 hPa NNE 2.6 mph /  4.2 km/h 3.5 mph /  5.6 km/h 61 % 0.00 in /  0 mm
10:10 59.4 °F /  15.2 °C 45.9 °F /  7.7 °C 29.94 in /  1013.8 hPa NNE 3.1 mph /  5 km/h 5.8 mph /  9.3 km/h 61 % 0.00 in /  0 mm
10:15 59.7 °F /  15.4 °C 46.7 °F /  8.2 °C 29.94 in /  1013.8 hPa NNE 3.9 mph /  6.3 km/h 5.8 mph /  9.3 km/h 62 % 0.00 in /  0 mm
10:20 60.3 °F /  15.7 °C 47.6 °F /  8.7 °C 29.94 in /  1013.8 hPa WNW 1.2 mph /  1.9 km/h 3.5 mph /  5.6 km/h 63 % 0.00 in /  0 mm
10:25 60.5 °F /  15.8 °C 46.1 °F /  7.8 °C 29.94 in /  1013.8 hPa North 2.2 mph /  3.5 km/h 7.0 mph /  11.3 km/h 59 % 0.00 in /  0 mm
10:31 60.8 °F /  16 °C 46.8 °F /  8.2 °C 29.94 in /  1013.8 hPa North 1.0 mph /  1.6 km/h 6.0 mph /  9.7 km/h 60 % 0.00 in /  0 mm
10:36 60.9 °F /  16.1 °C 46.5 °F /  8.1 °C 29.94 in /  1013.8 hPa NNE 2.0 mph /  3.2 km/h 7.0 mph /  11.3 km/h 59 % 0.00 in /  0 mm
10:41 61.0 °F /  16.1 °C 46.6 °F /  8.1 °C 29.94 in /  1013.8 hPa North 3.0 mph /  4.8 km/h 6.0 mph /  9.7 km/h 59 % 0.00 in /  0 mm
10:46 61.0 °F /  16.1 °C 46.1 °F /  7.8 °C 29.94 in /  1013.8 hPa North 2.0 mph /  3.2 km/h 7.0 mph /  11.3 km/h 58 % 0.00 in /  0 mm
10:51 61.0 °F /  16.1 °C 46.6 °F /  8.1 °C 29.94 in /  1013.8 hPa NNE 1.0 mph /  1.6 km/h 5.0 mph /  8 km/h 59 % 0.00 in /  0 mm
10:56 61.1 °F /  16.2 °C 47.1 °F /  8.4 °C 29.94 in /  1013.8 hPa North 1.0 mph /  1.6 km/h 9.0 mph /  14.5 km/h 60 % 0.00 in /  0 mm
11:01 61.3 °F /  16.3 °C 47.7 °F /  8.7 °C 29.94 in /  1013.8 hPa NNE 2.4 mph /  3.9 km/h 4.0 mph /  6.4 km/h 61 % 0.00 in /  0 mm
11:06 61.7 °F /  16.5 °C 47.7 °F /  8.7 °C 29.94 in /  1013.8 hPa NNE 4.8 mph /  7.7 km/h 6.9 mph /  11.1 km/h 60 % 0.00 in /  0 mm
11:11 62.3 °F /  16.8 °C 48.7 °F /  9.3 °C 29.94 in /  1013.8 hPa North 2.2 mph /  3.5 km/h 3.5 mph /  5.6 km/h 61 % 0.00 in /  0 mm
11:16 62.9 °F /  17.2 °C 48.3 °F /  9.1 °C 29.94 in /  1013.8 hPa NNE 4.0 mph /  6.4 km/h 4.6 mph /  7.4 km/h 59 % 0.00 in /  0 mm
11:21 64.1 °F /  17.8 °C 49.9 °F /  9.9 °C 29.94 in /  1013.8 hPa North 1.0 mph /  1.6 km/h 6.0 mph /  9.7 km/h 60 % 0.00 in /  0 mm
11:26 65.3 °F /  18.5 °C 50.6 °F /  10.3 °C 29.94 in /  1013.8 hPa North 1.1 mph /  1.8 km/h 3.5 mph /  5.6 km/h 59 % 0.00 in /  0 mm
11:36 67.0 °F /  19.4 °C 49.8 °F /  9.9 °C 29.93 in /  1013.4 hPa North 3.7 mph /  6 km/h 4.6 mph /  7.4 km/h 54 % 0.00 in /  0 mm
11:41 67.9 °F /  19.9 °C 50.1 °F /  10.1 °C 29.93 in /  1013.4 hPa North 0.7 mph /  1.1 km/h 3.5 mph /  5.6 km/h 53 % 0.00 in /  0 mm
11:46 68.5 °F /  20.3 °C 51.2 °F /  10.7 °C 29.93 in /  1013.4 hPa North 2.3 mph /  3.7 km/h 5.0 mph /  8 km/h 54 % 0.00 in /  0 mm
11:51 68.9 °F /  20.5 °C 48.9 °F /  9.4 °C 29.92 in /  1013.1 hPa WNW 4.0 mph /  6.4 km/h 4.0 mph /  6.4 km/h 49 % 0.00 in /  0 mm
11:56 69.1 °F /  20.6 °C 50.7 °F /  10.4 °C 29.93 in /  1013.4 hPa NNE 2.0 mph /  3.2 km/h 3.5 mph /  5.6 km/h 52 % 0.00 in /  0 mm
12:01 69.7 °F /  20.9 °C 51.8 °F /  11 °C 29.92 in /  1013.1 hPa WNW 1.7 mph /  2.7 km/h 3.5 mph /  5.6 km/h 53 % 0.00 in /  0 mm
12:06 70.1 °F /  21.2 °C 50.6 °F /  10.3 °C 29.92 in /  1013.1 hPa NNE 3.0 mph /  4.8 km/h 4.6 mph /  7.4 km/h 50 % 0.00 in /  0 mm
12:12 70.4 °F /  21.3 °C 50.9 °F /  10.5 °C 29.92 in /  1013.1 hPa SSW 1.5 mph /  2.4 km/h 4.6 mph /  7.4 km/h 50 % 0.00 in /  0 mm
12:17 70.7 °F /  21.5 °C 49.5 °F /  9.7 °C 29.92 in /  1013.1 hPa WNW 2.1 mph /  3.4 km/h 4.0 mph /  6.4 km/h 47 % 0.00 in /  0 mm
12:22 71.1 °F /  21.7 °C 49.8 °F /  9.9 °C 29.92 in /  1013.1 hPa NNE 1.7 mph /  2.7 km/h 4.6 mph /  7.4 km/h 47 % 0.00 in /  0 mm
12:27 71.3 °F /  21.8 °C 50.0 °F /  10 °C 29.92 in /  1013.1 hPa WNW 3.8 mph /  6.1 km/h 5.8 mph /  9.3 km/h 47 % 0.00 in /  0 mm
12:32 71.5 °F /  21.9 °C 51.9 °F /  11.1 °C 29.92 in /  1013.1 hPa NW 2.6 mph /  4.2 km/h 6.0 mph /  9.7 km/h 50 % 0.00 in /  0 mm
12:37 71.4 °F /  21.9 °C 49.5 °F /  9.7 °C 29.92 in /  1013.1 hPa West 2.5 mph /  4 km/h 4.6 mph /  7.4 km/h 46 % 0.00 in /  0 mm
12:42 71.4 °F /  21.9 °C 51.8 °F /  11 °C 29.92 in /  1013.1 hPa West 1.0 mph /  1.6 km/h 2.3 mph /  3.7 km/h 50 % 0.00 in /  0 mm
12:47 71.7 °F /  22.1 °C 52.6 °F /  11.4 °C 29.92 in /  1013.1 hPa West 1.1 mph /  1.8 km/h 3.5 mph /  5.6 km/h 51 % 0.00 in /  0 mm
12:52 71.6 °F /  22 °C 51.4 °F /  10.8 °C 29.92 in /  1013.1 hPa NW 1.4 mph /  2.3 km/h 3.5 mph /  5.6 km/h 49 % 0.00 in /  0 mm
12:57 71.8 °F /  22.1 °C 50.5 °F /  10.3 °C 29.92 in /  1013.1 hPa WSW 3.1 mph /  5 km/h 3.5 mph /  5.6 km/h 47 % 0.00 in /  0 mm
13:02 72.1 °F /  22.3 °C 50.8 °F /  10.4 °C 29.92 in /  1013.1 hPa WNW 0.9 mph /  1.4 km/h 3.0 mph /  4.8 km/h 47 % 0.00 in /  0 mm
13:05 72.2 °F /  22.3 °C 50.3 °F /  10.2 °C 29.92 in /  1013.1 hPa WNW 1.9 mph /  3.1 km/h 2.3 mph /  3.7 km/h 46 % 0.00 in /  0 mm
13:10 72.3 °F /  22.4 °C 50.9 °F /  10.5 °C 29.92 in /  1013.1 hPa West 1.5 mph /  2.4 km/h 4.0 mph /  6.4 km/h 47 % 0.00 in /  0 mm
13:13 72.3 °F /  22.4 °C 50.4 °F /  10.2 °C 29.92 in /  1013.1 hPa NW 3.7 mph /  6 km/h 4.6 mph /  7.4 km/h 46 % 0.00 in /  0 mm
13:18 72.2 °F /  22.3 °C 51.4 °F /  10.8 °C 29.91 in /  1012.8 hPa Calm   1.2 mph /  1.9 km/h 48 % 0.00 in /  0 mm
13:23 72.1 °F /  22.3 °C 50.8 °F /  10.4 °C 29.91 in /  1012.8 hPa WNW 2.7 mph /  4.3 km/h 6.9 mph /  11.1 km/h 47 % 0.00 in /  0 mm
13:28 72.1 °F /  22.3 °C 50.8 °F /  10.4 °C 29.91 in /  1012.8 hPa NW 4.0 mph /  6.4 km/h 6.9 mph /  11.1 km/h 47 % 0.00 in /  0 mm
13:29 72.1 °F /  22.3 °C 51.3 °F /  10.7 °C 29.91 in /  1012.8 hPa NW 4.8 mph /  7.7 km/h 9.0 mph /  14.5 km/h 48 % 0.00 in /  0 mm
13:34 72.1 °F /  22.3 °C 51.9 °F /  11.1 °C 29.90 in /  1012.4 hPa WSW 1.7 mph /  2.7 km/h 3.5 mph /  5.6 km/h 49 % 0.00 in /  0 mm
13:39 72.1 °F /  22.3 °C 50.8 °F /  10.4 °C 29.90 in /  1012.4 hPa NW 1.5 mph /  2.4 km/h 3.5 mph /  5.6 km/h 47 % 0.00 in /  0 mm
13:44 72.1 °F /  22.3 °C 50.2 °F /  10.1 °C 29.90 in /  1012.4 hPa WNW 0.2 mph /  0.3 km/h 1.2 mph /  1.9 km/h 46 % 0.00 in /  0 mm
13:46 72.1 °F /  22.3 °C 51.9 °F /  11.1 °C 29.90 in /  1012.4 hPa WSW 2.8 mph /  4.5 km/h 3.5 mph /  5.6 km/h 49 % 0.00 in /  0 mm
13:51 72.2 °F /  22.3 °C 50.8 °F /  10.4 °C 29.90 in /  1012.4 hPa West 2.6 mph /  4.2 km/h 8.1 mph /  13 km/h 47 % 0.00 in /  0 mm
13:56 72.5 °F /  22.5 °C 51.7 °F /  10.9 °C 29.90 in /  1012.4 hPa WNW 1.9 mph /  3.1 km/h 5.0 mph /  8 km/h 48 % 0.00 in /  0 mm
14:01 72.5 °F /  22.5 °C 50.5 °F /  10.3 °C 29.89 in /  1012.1 hPa WSW 1.5 mph /  2.4 km/h 7.0 mph /  11.3 km/h 46 % 0.00 in /  0 mm
14:06 72.5 °F /  22.5 °C 49.9 °F /  9.9 °C 29.89 in /  1012.1 hPa SSW 4.1 mph /  6.6 km/h 6.9 mph /  11.1 km/h 45 % 0.00 in /  0 mm
14:11 72.5 °F /  22.5 °C 50.5 °F /  10.3 °C 29.89 in /  1012.1 hPa West 4.8 mph /  7.7 km/h 9.0 mph /  14.5 km/h 46 % 0.00 in /  0 mm
14:16 72.4 °F /  22.4 °C 50.4 °F /  10.2 °C 29.89 in /  1012.1 hPa West 2.0 mph /  3.2 km/h 8.1 mph /  13 km/h 46 % 0.00 in /  0 mm
14:21 72.3 °F /  22.4 °C 50.9 °F /  10.5 °C 29.89 in /  1012.1 hPa West 2.8 mph /  4.5 km/h 5.8 mph /  9.3 km/h 47 % 0.00 in /  0 mm
14:26 72.2 °F /  22.3 °C 49.7 °F /  9.8 °C 29.89 in /  1012.1 hPa WSW 4.4 mph /  7.1 km/h 6.9 mph /  11.1 km/h 45 % 0.00 in /  0 mm
14:32 72.1 °F /  22.3 °C 50.8 °F /  10.4 °C 29.89 in /  1012.1 hPa NW 0.9 mph /  1.4 km/h 2.0 mph /  3.2 km/h 47 % 0.00 in /  0 mm
14:37 72.0 °F /  22.2 °C 50.7 °F /  10.4 °C 29.89 in /  1012.1 hPa West 1.5 mph /  2.4 km/h 4.6 mph /  7.4 km/h 47 % 0.00 in /  0 mm
14:42 71.9 °F /  22.2 °C 50.0 °F /  10 °C 29.89 in /  1012.1 hPa West 1.0 mph /  1.6 km/h 2.0 mph /  3.2 km/h 46 % 0.00 in /  0 mm
14:47 72.0 °F /  22.2 °C 50.1 °F /  10.1 °C 29.89 in /  1012.1 hPa WSW 1.2 mph /  1.9 km/h 3.5 mph /  5.6 km/h 46 % 0.00 in /  0 mm
14:52 72.1 °F /  22.3 °C 51.3 °F /  10.7 °C 29.89 in /  1012.1 hPa West 2.2 mph /  3.5 km/h 4.6 mph /  7.4 km/h 48 % 0.00 in /  0 mm
14:57 72.0 °F /  22.2 °C 49.5 °F /  9.7 °C 29.89 in /  1012.1 hPa WSW 3.2 mph /  5.1 km/h 6.9 mph /  11.1 km/h 45 % 0.00 in /  0 mm
15:02 72.0 °F /  22.2 °C 50.7 °F /  10.4 °C 29.88 in /  1011.7 hPa WNW 1.0 mph /  1.6 km/h 4.6 mph /  7.4 km/h 47 % 0.00 in /  0 mm
15:07 72.0 °F /  22.2 °C 51.2 °F /  10.7 °C 29.88 in /  1011.7 hPa NNW 2.2 mph /  3.5 km/h 5.8 mph /  9.3 km/h 48 % 0.00 in /  0 mm
15:12 71.9 °F /  22.2 °C 50.6 °F /  10.3 °C 29.88 in /  1011.7 hPa NW 1.2 mph /  1.9 km/h 3.5 mph /  5.6 km/h 47 % 0.00 in /  0 mm
15:17 71.8 °F /  22.1 °C 51.0 °F /  10.6 °C 29.88 in /  1011.7 hPa West 2.5 mph /  4 km/h 4.6 mph /  7.4 km/h 48 % 0.00 in /  0 mm
15:22 71.7 °F /  22.1 °C 49.8 °F /  9.9 °C 29.88 in /  1011.7 hPa West 2.2 mph /  3.5 km/h 4.6 mph /  7.4 km/h 46 % 0.00 in /  0 mm
15:27 71.5 °F /  21.9 °C 50.2 °F /  10.1 °C 29.88 in /  1011.7 hPa NW 1.9 mph /  3.1 km/h 3.5 mph /  5.6 km/h 47 % 0.00 in /  0 mm
15:32 71.3 °F /  21.8 °C 48.9 °F /  9.4 °C 29.87 in /  1011.4 hPa NW 3.2 mph /  5.1 km/h 6.9 mph /  11.1 km/h 45 % 0.00 in /  0 mm
15:37 70.9 °F /  21.6 °C 49.7 °F /  9.8 °C 29.87 in /  1011.4 hPa NNW 1.5 mph /  2.4 km/h 6.0 mph /  9.7 km/h 47 % 0.00 in /  0 mm
15:38 70.9 °F /  21.6 °C 49.7 °F /  9.8 °C 29.87 in /  1011.4 hPa WNW 2.8 mph /  4.5 km/h 5.8 mph /  9.3 km/h 47 % 0.00 in /  0 mm
15:43 70.5 °F /  21.4 °C 49.9 °F /  9.9 °C 29.87 in /  1011.4 hPa NNW 3.2 mph /  5.1 km/h 7.0 mph /  11.3 km/h 48 % 0.00 in /  0 mm
15:48 70.3 °F /  21.3 °C 51.3 °F /  10.7 °C 29.87 in /  1011.4 hPa WNW 1.0 mph /  1.6 km/h 5.8 mph /  9.3 km/h 51 % 0.00 in /  0 mm
15:53 70.1 °F /  21.2 °C 50.0 °F /  10 °C 29.87 in /  1011.4 hPa WNW 4.2 mph /  6.8 km/h 8.1 mph /  13 km/h 49 % 0.00 in /  0 mm
15:58 69.9 °F /  21.1 °C 49.3 °F /  9.6 °C 29.87 in /  1011.4 hPa WNW 2.0 mph /  3.2 km/h 5.8 mph /  9.3 km/h 48 % 0.00 in /  0 mm
16:03 69.5 °F /  20.8 °C 49.5 °F /  9.7 °C 29.87 in /  1011.4 hPa WNW 3.2 mph /  5.1 km/h 6.9 mph /  11.1 km/h 49 % 0.00 in /  0 mm
16:08 69.1 °F /  20.6 °C 50.2 °F /  10.1 °C 29.87 in /  1011.4 hPa WNW 0.2 mph /  0.3 km/h 3.5 mph /  5.6 km/h 51 % 0.00 in /  0 mm
16:13 68.9 °F /  20.5 °C 49.5 °F /  9.7 °C 29.88 in /  1011.7 hPa West 1.7 mph /  2.7 km/h 4.0 mph /  6.4 km/h 50 % 0.00 in /  0 mm
16:18 68.6 °F /  20.3 °C 50.3 °F /  10.2 °C 29.88 in /  1011.7 hPa NNW 1.2 mph /  1.9 km/h 3.5 mph /  5.6 km/h 52 % 0.00 in /  0 mm
16:23 68.4 °F /  20.2 °C 50.6 °F /  10.3 °C 29.87 in /  1011.4 hPa North 2.2 mph /  3.5 km/h 4.6 mph /  7.4 km/h 53 % 0.00 in /  0 mm
16:28 68.0 °F /  20 °C 49.7 °F /  9.8 °C 29.87 in /  1011.4 hPa West 1.0 mph /  1.6 km/h 3.5 mph /  5.6 km/h 52 % 0.00 in /  0 mm
16:33 67.8 °F /  19.9 °C 50.5 °F /  10.3 °C 29.87 in /  1011.4 hPa NNW 1.2 mph /  1.9 km/h 5.0 mph /  8 km/h 54 % 0.00 in /  0 mm
16:38 67.6 °F /  19.8 °C 49.9 °F /  9.9 °C 29.87 in /  1011.4 hPa NW 1.6 mph /  2.6 km/h 4.6 mph /  7.4 km/h 53 % 0.00 in /  0 mm
16:43 67.4 °F /  19.7 °C 49.7 °F /  9.8 °C 29.88 in /  1011.7 hPa WNW 2.3 mph /  3.7 km/h 3.5 mph /  5.6 km/h 53 % 0.00 in /  0 mm
16:48 67.2 °F /  19.6 °C 50.5 °F /  10.3 °C 29.88 in /  1011.7 hPa WNW 0.7 mph /  1.1 km/h 2.0 mph /  3.2 km/h 55 % 0.00 in /  0 mm
16:53 67.0 °F /  19.4 °C 49.8 °F /  9.9 °C 29.87 in /  1011.4 hPa West 4.2 mph /  6.8 km/h 9.2 mph /  14.8 km/h 54 % 0.00 in /  0 mm
16:58 66.8 °F /  19.3 °C 49.1 °F /  9.5 °C 29.87 in /  1011.4 hPa WNW 1.3 mph /  2.1 km/h 3.5 mph /  5.6 km/h 53 % 0.00 in /  0 mm
17:03 66.7 °F /  19.3 °C 49.5 °F /  9.7 °C 29.87 in /  1011.4 hPa WNW 1.6 mph /  2.6 km/h 5.0 mph /  8 km/h 54 % 0.00 in /  0 mm
17:08 66.5 °F /  19.2 °C 49.3 °F /  9.6 °C 29.87 in /  1011.4 hPa WNW 1.5 mph /  2.4 km/h 3.5 mph /  5.6 km/h 54 % 0.00 in /  0 mm
17:13 66.3 °F /  19.1 °C 49.6 °F /  9.8 °C 29.88 in /  1011.7 hPa Calm   1.2 mph /  1.9 km/h 55 % 0.00 in /  0 mm
17:18 66.1 °F /  18.9 °C 49.9 °F /  9.9 °C 29.88 in /  1011.7 hPa NNW 0.4 mph /  0.6 km/h 3.5 mph /  5.6 km/h 56 % 0.00 in /  0 mm
17:23 65.9 °F /  18.8 °C 50.2 °F /  10.1 °C 29.88 in /  1011.7 hPa West 0.9 mph /  1.4 km/h 7.0 mph /  11.3 km/h 57 % 0.00 in /  0 mm
17:29 65.8 °F /  18.8 °C 50.1 °F /  10.1 °C 29.88 in /  1011.7 hPa NW 1.0 mph /  1.6 km/h 2.3 mph /  3.7 km/h 57 % 0.00 in /  0 mm
17:34 65.7 °F /  18.7 °C 50.5 °F /  10.3 °C 29.88 in /  1011.7 hPa North 0.8 mph /  1.3 km/h 2.3 mph /  3.7 km/h 58 % 0.00 in /  0 mm
17:39 65.5 °F /  18.6 °C 49.9 °F /  9.9 °C 29.88 in /  1011.7 hPa NW 0.7 mph /  1.1 km/h 3.5 mph /  5.6 km/h 57 % 0.00 in /  0 mm
17:44 65.4 °F /  18.6 °C 49.8 °F /  9.9 °C 29.88 in /  1011.7 hPa WSW 1.0 mph /  1.6 km/h 3.5 mph /  5.6 km/h 57 % 0.00 in /  0 mm
17:49 65.3 °F /  18.5 °C 50.1 °F /  10.1 °C 29.88 in /  1011.7 hPa West 0.9 mph /  1.4 km/h 2.3 mph /  3.7 km/h 58 % 0.00 in /  0 mm
17:54 65.2 °F /  18.4 °C 50.0 °F /  10 °C 29.88 in /  1011.7 hPa Calm     58 % 0.00 in /  0 mm
17:59 65.0 °F /  18.3 °C 49.9 °F /  9.9 °C 29.88 in /  1011.7 hPa West 0.9 mph /  1.4 km/h 3.5 mph /  5.6 km/h 58 % 0.00 in /  0 mm
18:04 64.9 °F /  18.3 °C 49.8 °F /  9.9 °C 29.89 in /  1012.1 hPa Calm   2.3 mph /  3.7 km/h 58 % 0.00 in /  0 mm
18:09 64.8 °F /  18.2 °C 50.1 °F /  10.1 °C 29.89 in /  1012.1 hPa West 0.9 mph /  1.4 km/h 1.2 mph /  1.9 km/h 59 % 0.00 in /  0 mm
18:14 64.7 °F /  18.2 °C 50.0 °F /  10 °C 29.89 in /  1012.1 hPa Calm     59 % 0.00 in /  0 mm
18:19 64.6 °F /  18.1 °C 50.4 °F /  10.2 °C 29.89 in /  1012.1 hPa West 0.1 mph /  0.2 km/h 1.0 mph /  1.6 km/h 60 % 0.00 in /  0 mm
18:24 64.4 °F /  18 °C 50.2 °F /  10.1 °C 29.89 in /  1012.1 hPa West 0.2 mph /  0.3 km/h 1.2 mph /  1.9 km/h 60 % 0.00 in /  0 mm
18:29 64.3 °F /  17.9 °C 50.1 °F /  10.1 °C 29.89 in /  1012.1 hPa Calm     60 % 0.00 in /  0 mm
18:34 64.1 °F /  17.8 °C 50.4 °F /  10.2 °C 29.89 in /  1012.1 hPa Calm     61 % 0.00 in /  0 mm
18:40 63.9 °F /  17.7 °C 50.6 °F /  10.3 °C 29.89 in /  1012.1 hPa Calm     62 % 0.00 in /  0 mm
18:45 63.7 °F /  17.6 °C 50.4 °F /  10.2 °C 29.89 in /  1012.1 hPa Calm     62 % 0.00 in /  0 mm
18:50 63.4 °F /  17.4 °C 50.1 °F /  10.1 °C 29.89 in /  1012.1 hPa Calm   1.2 mph /  1.9 km/h 62 % 0.00 in /  0 mm
18:55 63.2 °F /  17.3 °C 50.4 °F /  10.2 °C 29.89 in /  1012.1 hPa Calm     63 % 0.00 in /  0 mm
19:00 62.9 °F /  17.2 °C 51.0 °F /  10.6 °C 29.89 in /  1012.1 hPa Calm     65 % 0.00 in /  0 mm
19:05 62.7 °F /  17.1 °C 51.2 °F /  10.7 °C 29.90 in /  1012.4 hPa West 0.6 mph /  1 km/h 2.3 mph /  3.7 km/h 66 % 0.00 in /  0 mm
19:10 62.4 °F /  16.9 °C 50.9 °F /  10.5 °C 29.89 in /  1012.1 hPa West 0.1 mph /  0.2 km/h 1.2 mph /  1.9 km/h 66 % 0.00 in /  0 mm
19:15 62.2 °F /  16.8 °C 51.1 °F /  10.6 °C 29.89 in /  1012.1 hPa Calm     67 % 0.00 in /  0 mm
19:20 61.8 °F /  16.6 °C 51.1 °F /  10.6 °C 29.89 in /  1012.1 hPa Calm     68 % 0.00 in /  0 mm
19:25 61.5 °F /  16.4 °C 51.2 °F /  10.7 °C 29.89 in /  1012.1 hPa Calm     69 % 0.00 in /  0 mm
19:30 61.2 °F /  16.2 °C 50.9 °F /  10.5 °C 29.90 in /  1012.4 hPa West 0.8 mph /  1.3 km/h 2.3 mph /  3.7 km/h 69 % 0.00 in /  0 mm
19:35 60.9 °F /  16.1 °C 50.7 °F /  10.4 °C 29.89 in /  1012.1 hPa Calm   1.2 mph /  1.9 km/h 69 % 0.00 in /  0 mm
19:40 60.5 °F /  15.8 °C 50.7 °F /  10.4 °C 29.90 in /  1012.4 hPa Calm     70 % 0.00 in /  0 mm
19:45 60.2 °F /  15.7 °C 50.4 °F /  10.2 °C 29.90 in /  1012.4 hPa Calm     70 % 0.00 in /  0 mm
19:50 59.9 °F /  15.5 °C 50.5 °F /  10.3 °C 29.90 in /  1012.4 hPa Calm     71 % 0.00 in /  0 mm
19:55 59.6 °F /  15.3 °C 50.6 °F /  10.3 °C 29.90 in /  1012.4 hPa Calm     72 % 0.00 in /  0 mm
20:00 59.4 °F /  15.2 °C 50.4 °F /  10.2 °C 29.90 in /  1012.4 hPa Calm   1.2 mph /  1.9 km/h 72 % 0.00 in /  0 mm
20:05 59.1 °F /  15.1 °C 50.1 °F /  10.1 °C 29.90 in /  1012.4 hPa Calm     72 % 0.00 in /  0 mm
20:10 58.9 °F /  14.9 °C 50.3 °F /  10.2 °C 29.91 in /  1012.8 hPa Calm     73 % 0.00 in /  0 mm
20:15 58.7 °F /  14.8 °C 50.4 °F /  10.2 °C 29.90 in /  1012.4 hPa Calm     74 % 0.00 in /  0 mm
20:20 58.4 °F /  14.7 °C 50.1 °F /  10.1 °C 29.91 in /  1012.8 hPa Calm     74 % 0.00 in /  0 mm
20:25 58.2 °F /  14.6 °C 50.3 °F /  10.2 °C 29.91 in /  1012.8 hPa Calm     75 % 0.00 in /  0 mm
20:30 58.0 °F /  14.4 °C 50.1 °F /  10.1 °C 29.91 in /  1012.8 hPa Calm     75 % 0.00 in /  0 mm
20:36 57.9 °F /  14.4 °C 50.4 °F /  10.2 °C 29.91 in /  1012.8 hPa Calm     76 % 0.00 in /  0 mm
20:41 57.7 °F /  14.3 °C 50.5 °F /  10.3 °C 29.91 in /  1012.8 hPa Calm     77 % 0.00 in /  0 mm
20:46 57.6 °F /  14.2 °C 50.8 °F /  10.4 °C 29.91 in /  1012.8 hPa Calm     78 % 0.00 in /  0 mm
20:50 57.4 °F /  14.1 °C 50.9 °F /  10.5 °C 29.91 in /  1012.8 hPa Calm     79 % 0.00 in /  0 mm
20:52 57.3 °F /  14.1 °C 50.8 °F /  10.4 °C 29.91 in /  1012.8 hPa Calm     79 % 0.00 in /  0 mm
20:57 57.2 °F /  14 °C 50.7 °F /  10.4 °C 29.91 in /  1012.8 hPa West 0.1 mph /  0.2 km/h 1.2 mph /  1.9 km/h 79 % 0.00 in /  0 mm
21:02 57.1 °F /  13.9 °C 50.6 °F /  10.3 °C 29.91 in /  1012.8 hPa West 0.1 mph /  0.2 km/h 1.2 mph /  1.9 km/h 79 % 0.00 in /  0 mm
21:07 56.9 °F /  13.8 °C 50.8 °F /  10.4 °C 29.91 in /  1012.8 hPa West 0.2 mph /  0.3 km/h 1.2 mph /  1.9 km/h 80 % 0.00 in /  0 mm
21:12 56.8 °F /  13.8 °C 51.0 °F /  10.6 °C 29.91 in /  1012.8 hPa West 0.2 mph /  0.3 km/h 1.2 mph /  1.9 km/h 81 % 0.00 in /  0 mm
21:17 56.7 °F /  13.7 °C 50.9 °F /  10.5 °C 29.91 in /  1012.8 hPa Calm     81 % 0.00 in /  0 mm
21:22 56.6 °F /  13.7 °C 50.8 °F /  10.4 °C 29.91 in /  1012.8 hPa West 0.2 mph /  0.3 km/h 1.2 mph /  1.9 km/h 81 % 0.00 in /  0 mm
21:27 56.5 °F /  13.6 °C 50.7 °F /  10.4 °C 29.91 in /  1012.8 hPa West 0.4 mph /  0.6 km/h 1.2 mph /  1.9 km/h 81 % 0.00 in /  0 mm
21:32 56.4 °F /  13.6 °C 50.6 °F /  10.3 °C 29.91 in /  1012.8 hPa Calm     81 % 0.00 in /  0 mm
21:37 56.3 °F /  13.5 °C 50.5 °F /  10.3 °C 29.91 in /  1012.8 hPa Calm     81 % 0.00 in /  0 mm
21:42 56.2 °F /  13.4 °C 50.4 °F /  10.2 °C 29.91 in /  1012.8 hPa Calm     81 % 0.00 in /  0 mm
21:48 56.1 °F /  13.4 °C 50.3 °F /  10.2 °C 29.91 in /  1012.8 hPa Calm     81 % 0.00 in /  0 mm
21:53 56.0 °F /  13.3 °C 50.3 °F /  10.2 °C 29.90 in /  1012.4 hPa Calm     81 % 0.00 in /  0 mm
21:58 55.9 °F /  13.3 °C 50.5 °F /  10.3 °C 29.91 in /  1012.8 hPa Calm     82 % 0.00 in /  0 mm
22:03 55.8 °F /  13.2 °C 50.4 °F /  10.2 °C 29.91 in /  1012.8 hPa Calm     82 % 0.00 in /  0 mm
22:08 55.7 °F /  13.2 °C 50.3 °F /  10.2 °C 29.91 in /  1012.8 hPa Calm     82 % 0.00 in /  0 mm
22:13 55.6 °F /  13.1 °C 50.2 °F /  10.1 °C 29.91 in /  1012.8 hPa Calm     82 % 0.00 in /  0 mm
22:18 55.5 °F /  13.1 °C 50.1 °F /  10.1 °C 29.91 in /  1012.8 hPa Calm     82 % 0.00 in /  0 mm
22:23 55.4 °F /  13 °C 50.0 °F /  10 °C 29.91 in /  1012.8 hPa Calm     82 % 0.00 in /  0 mm
22:28 55.3 °F /  12.9 °C 49.9 °F /  9.9 °C 29.91 in /  1012.8 hPa Calm     82 % 0.00 in /  0 mm
22:33 55.2 °F /  12.9 °C 50.1 °F /  10.1 °C 29.91 in /  1012.8 hPa Calm     83 % 0.00 in /  0 mm
22:38 55.1 °F /  12.8 °C 50.4 °F /  10.2 °C 29.92 in /  1013.1 hPa Calm     84 % 0.00 in /  0 mm
22:43 54.9 °F /  12.7 °C 50.2 °F /  10.1 °C 29.92 in /  1013.1 hPa Calm     84 % 0.00 in /  0 mm
22:48 54.9 °F /  12.7 °C 50.2 °F /  10.1 °C 29.91 in /  1012.8 hPa Calm     84 % 0.00 in /  0 mm
22:53 54.8 °F /  12.7 °C 50.1 °F /  10.1 °C 29.91 in /  1012.8 hPa Calm     84 % 0.00 in /  0 mm
22:58 54.7 °F /  12.6 °C 50.0 °F /  10 °C 29.92 in /  1013.1 hPa Calm     84 % 0.00 in /  0 mm
23:03 54.6 °F /  12.6 °C 49.9 °F /  9.9 °C 29.91 in /  1012.8 hPa Calm     84 % 0.00 in /  0 mm
23:08 54.6 °F /  12.6 °C 49.9 °F /  9.9 °C 29.91 in /  1012.8 hPa Calm     84 % 0.00 in /  0 mm
23:14 54.5 °F /  12.5 °C 49.8 °F /  9.9 °C 29.91 in /  1012.8 hPa Calm     84 % 0.00 in /  0 mm
23:19 54.5 °F /  12.5 °C 50.1 °F /  10.1 °C 29.91 in /  1012.8 hPa Calm     85 % 0.00 in /  0 mm
23:24 54.4 °F /  12.4 °C 50.0 °F /  10 °C 29.91 in /  1012.8 hPa Calm     85 % 0.00 in /  0 mm
23:29 54.4 °F /  12.4 °C 50.0 °F /  10 °C 29.91 in /  1012.8 hPa Calm     85 % 0.00 in /  0 mm
23:34 54.3 °F /  12.4 °C 50.2 °F /  10.1 °C 29.91 in /  1012.8 hPa Calm     86 % 0.00 in /  0 mm
23:39 54.3 °F /  12.4 °C 50.2 °F /  10.1 °C 29.91 in /  1012.8 hPa Calm     86 % 0.00 in /  0 mm
23:44 54.3 °F /  12.4 °C 50.2 °F /  10.1 °C 29.91 in /  1012.8 hPa Calm     86 % 0.00 in /  0 mm
23:49 54.3 °F /  12.4 °C 50.2 °F /  10.1 °C 29.91 in /  1012.8 hPa Calm     86 % 0.00 in /  0 mm
23:54 54.3 °F /  12.4 °C 50.2 °F /  10.1 °C 29.91 in /  1012.8 hPa Calm     86 % 0.00 in /  0 mm
23:59 54.3 °F /  12.4 °C 50.2 °F /  10.1 °C 29.90 in /  1012.4 hPa Calm     86 % 0.00 in /  0 mm
Crab Meadow Weather
Compliments of Weather Underground - 3 mb

Script developed by  Jim McMurry - jmcmurry@mwt.net Adapted for the template by  Wim van der Kuil - Leuven-Template.eu

Humidity: Humidity is the amount of water vapor in the air. The term "humidity" refers to relative humidity. Relative humidity is defined as the amount of water vapor in a sample of air compared to the maximum amount of water vapor the air can hold at any specific temperature in a form of 0 to 100%. Relative humidity is important in forecasting weather. Humidity indicates the likelihood of precipitation, dew, or fog. High humidity makes people feel hotter outside in the summer because it reduces the effectiveness of sweating to cool the body by preventing the evaporation of perspiration from the skin.